Time;durP1;ratioP1;P1;durP2;ratioP2;P2;SDS_P1;SDS_P2;PMS_P1;PMS_P2;Temp;Humidity;BMP_temperature;BMP_pressure;BME280_temperature;BME280_humidity;BME280_pressure;Samples;Min_cycle;Max_cycle;Signal;HPM_P1;HPM_P2
2021/05/15 00:01:52;;;;;;;11.20;2.43;;;11.30;99.90;;;;;;5052959;28;20452;-83
2021/05/15 00:04:19;;;;;;;11.87;3.20;;;11.20;99.90;;;;;;5057986;28;20558;-83
2021/05/15 00:06:45;;;;;;;11.80;2.80;;;11.10;99.90;;;;;;5057513;28;20853;-84
2021/05/15 00:09:12;;;;;;;11.40;2.60;;;11.00;99.90;;;;;;5058208;28;20452;-84
2021/05/15 00:11:38;;;;;;;12.13;2.40;;;11.00;99.90;;;;;;5057503;28;20459;-84
2021/05/15 00:14:05;;;;;;;11.90;2.90;;;11.00;99.90;;;;;;5058184;28;20450;-83
2021/05/15 00:16:32;;;;;;;11.40;2.70;;;10.90;99.90;;;;;;5057664;28;20456;-84
2021/05/15 00:18:58;;;;;;;12.77;2.40;;;10.90;99.90;;;;;;5056905;28;20878;-84
2021/05/15 00:21:25;;;;;;;10.57;2.33;;;10.80;99.90;;;;;;5056849;28;20510;-83
2021/05/15 00:23:51;;;;;;;12.77;3.00;;;10.80;99.90;;;;;;5056996;28;20456;-84
2021/05/15 00:26:18;;;;;;;12.57;2.80;;;10.70;99.90;;;;;;5062680;28;20462;-86
2021/05/15 00:28:44;;;;;;;11.97;2.87;;;10.60;99.90;;;;;;5060351;28;20444;-85
2021/05/15 00:31:12;;;;;;;11.17;2.60;;;10.60;99.90;;;;;;5059214;28;20483;-83
2021/05/15 00:33:38;;;;;;;10.57;2.10;;;10.50;99.90;;;;;;5058773;28;20614;-84
2021/05/15 00:36:05;;;;;;;12.00;2.70;;;10.50;99.90;;;;;;5059159;28;20539;-85
2021/05/15 00:38:32;;;;;;;10.33;2.27;;;10.50;99.90;;;;;;5059439;28;20948;-85
2021/05/15 00:40:58;;;;;;;11.57;2.77;;;10.30;99.90;;;;;;5058547;28;20533;-85
2021/05/15 00:43:27;;;;;;;11.77;2.70;;;10.40;99.90;;;;;;5057828;28;20502;-83
2021/05/15 00:45:53;;;;;;;10.87;2.50;;;10.30;99.90;;;;;;5058581;28;20452;-84
2021/05/15 00:48:20;;;;;;;12.27;3.00;;;10.30;99.90;;;;;;5059307;28;20506;-84
2021/05/15 00:50:46;;;;;;;12.60;2.57;;;10.30;99.90;;;;;;5059709;28;20497;-85
2021/05/15 00:53:13;;;;;;;9.90;2.20;;;10.30;99.90;;;;;;5058437;28;20566;-85
2021/05/15 00:55:39;;;;;;;12.80;3.53;;;10.20;99.90;;;;;;5059359;28;20534;-85
2021/05/15 00:58:06;;;;;;;10.60;2.57;;;10.20;99.90;;;;;;5060037;28;20448;-86
2021/05/15 01:00:32;;;;;;;12.63;3.20;;;10.20;99.90;;;;;;5057438;28;20472;-84
2021/05/15 01:02:59;;;;;;;11.20;3.50;;;10.20;99.90;;;;;;5056162;28;20474;-84
2021/05/15 01:05:26;;;;;;;11.37;3.20;;;10.20;99.90;;;;;;5058847;28;20544;-84
2021/05/15 01:07:53;;;;;;;11.43;3.20;;;10.20;99.90;;;;;;5058343;28;20460;-85
2021/05/15 01:10:19;;;;;;;11.20;3.27;;;10.30;99.90;;;;;;5057900;28;20476;-84
2021/05/15 01:12:49;;;;;;;11.77;3.70;;;10.40;99.90;;;;;;5056541;28;20516;-84
2021/05/15 01:15:17;;;;;;;11.30;3.00;;;10.40;99.90;;;;;;5058854;28;20522;-85
2021/05/15 01:17:54;;;;;;;10.87;3.17;;;10.50;99.90;;;;;;5053395;28;20480;-84
2021/05/15 01:20:23;;;;;;;11.57;3.53;;;10.50;99.90;;;;;;5064431;28;20467;-84
2021/05/15 01:22:50;;;;;;;9.87;2.90;;;10.60;99.90;;;;;;5052917;28;20967;-84
2021/05/15 01:25:18;;;;;;;11.50;5.17;;;10.60;99.90;;;;;;5049858;28;20426;-84
2021/05/15 01:27:45;;;;;;;11.60;3.50;;;10.50;99.90;;;;;;5052996;28;20456;-85
2021/05/15 01:30:13;;;;;;;15.57;3.90;;;10.50;99.90;;;;;;5055717;28;20502;-85
2021/05/15 01:32:42;;;;;;;10.97;3.40;;;10.40;99.90;;;;;;5055244;28;20956;-85
2021/05/15 01:35:11;;;;;;;12.63;4.30;;;10.40;99.90;;;;;;5055803;28;20898;-84
2021/05/15 01:37:37;;;;;;;11.10;3.13;;;10.30;99.90;;;;;;5056361;28;20893;-84
2021/05/15 01:40:07;;;;;;;13.37;3.80;;;10.30;99.90;;;;;;5052144;28;20519;-84
2021/05/15 01:42:34;;;;;;;12.43;3.73;;;10.20;99.90;;;;;;5049535;28;20504;-86
2021/05/15 01:45:01;;;;;;;11.33;3.90;;;10.10;99.90;;;;;;5052513;28;20508;-84
2021/05/15 01:47:28;;;;;;;11.63;4.30;;;10.10;99.90;;;;;;5051538;28;20960;-84
2021/05/15 01:49:54;;;;;;;11.57;4.63;;;10.00;99.90;;;;;;5046994;28;20484;-85
2021/05/15 01:52:20;;;;;;;12.90;4.30;;;10.00;99.90;;;;;;5053480;28;20462;-84
2021/05/15 01:54:47;;;;;;;11.97;4.40;;;10.00;99.90;;;;;;5055709;28;20476;-84
2021/05/15 01:57:14;;;;;;;11.80;3.80;;;10.00;99.90;;;;;;5057176;28;20456;-85
2021/05/15 01:59:41;;;;;;;13.33;5.27;;;9.90;99.90;;;;;;5057026;28;20474;-85
2021/05/15 02:02:07;;;;;;;12.17;4.10;;;9.90;99.90;;;;;;5056624;28;20459;-85
2021/05/15 02:04:33;;;;;;;13.07;5.00;;;10.00;99.90;;;;;;5056866;28;20440;-84
2021/05/15 02:07:00;;;;;;;12.63;5.07;;;10.00;99.90;;;;;;5057237;28;20450;-84
2021/05/15 02:12:09;;;;;;;13.57;4.63;;;10.00;99.90;;;;;;5055896;28;20475;-82
2021/05/15 02:14:37;;;;;;;10.47;3.90;;;10.00;99.90;;;;;;5058063;28;20526;-82
2021/05/15 02:17:03;;;;;;;13.07;4.20;;;10.00;99.90;;;;;;5057282;28;20448;-82
2021/05/15 02:19:29;;;;;;;12.37;4.40;;;9.90;99.90;;;;;;5058709;28;20531;-82
2021/05/15 02:21:56;;;;;;;11.67;4.80;;;10.00;99.90;;;;;;5056914;28;20468;-83
2021/05/15 02:24:22;;;;;;;11.63;4.57;;;10.00;99.90;;;;;;5057839;28;20444;-82
2021/05/15 02:26:48;;;;;;;11.90;4.23;;;10.00;99.90;;;;;;5058265;28;20452;-83
2021/05/15 02:29:15;;;;;;;12.00;4.87;;;10.00;99.90;;;;;;5058192;28;20839;-82
2021/05/15 02:31:42;;;;;;;10.93;4.57;;;10.00;99.90;;;;;;5057305;28;20477;-82
2021/05/15 02:34:08;;;;;;;11.30;4.70;;;10.00;99.90;;;;;;5057940;28;20489;-82
2021/05/15 02:36:34;;;;;;;10.50;4.40;;;10.00;99.90;;;;;;5058963;28;20459;-82
2021/05/15 02:39:01;;;;;;;12.53;4.80;;;10.00;99.90;;;;;;5060709;28;20527;-82
2021/05/15 02:41:27;;;;;;;11.73;4.77;;;9.90;99.90;;;;;;5058809;28;20472;-80
2021/05/15 02:43:53;;;;;;;11.50;4.70;;;9.90;99.90;;;;;;5060715;28;20491;-81
2021/05/15 02:46:20;;;;;;;12.93;5.27;;;9.90;99.90;;;;;;5057380;28;20951;-81
2021/05/15 02:48:47;;;;;;;13.00;5.13;;;9.90;99.90;;;;;;5063684;28;20538;-81
2021/05/15 02:51:13;;;;;;;11.20;5.00;;;9.90;99.90;;;;;;5062394;28;20478;-81
2021/05/15 02:53:39;;;;;;;12.53;4.70;;;9.80;99.90;;;;;;5064835;28;20492;-81
2021/05/15 02:56:06;;;;;;;11.10;4.20;;;9.80;99.90;;;;;;5063103;28;20842;-82
2021/05/15 02:58:32;;;;;;;12.90;4.60;;;9.80;99.90;;;;;;5062758;28;20458;-82
2021/05/15 03:00:58;;;;;;;12.37;4.73;;;9.70;99.90;;;;;;5065526;28;20583;-82
2021/05/15 03:03:25;;;;;;;13.50;5.10;;;9.70;99.90;;;;;;5065447;28;20472;-82
2021/05/15 03:05:52;;;;;;;12.73;5.17;;;9.80;99.90;;;;;;5066164;28;21096;-82
2021/05/15 03:08:18;;;;;;;13.00;4.07;;;9.80;99.90;;;;;;5060358;28;20462;-82
2021/05/15 03:10:44;;;;;;;12.30;4.83;;;9.90;99.90;;;;;;5058491;28;21048;-82
2021/05/15 03:13:11;;;;;;;10.20;4.23;;;9.90;99.90;;;;;;5064917;28;20814;-82
2021/05/15 03:15:37;;;;;;;12.50;5.40;;;10.00;99.90;;;;;;5064063;28;20454;-81
2021/05/15 03:18:04;;;;;;;12.47;5.43;;;10.10;99.90;;;;;;5064605;28;20451;-82
2021/05/15 03:20:30;;;;;;;11.00;4.87;;;10.10;99.90;;;;;;5061267;28;20554;-82
2021/05/15 03:22:58;;;;;;;16.33;5.80;;;10.10;99.90;;;;;;5062282;28;20519;-81
2021/05/15 03:25:24;;;;;;;11.37;5.23;;;10.20;99.90;;;;;;5062805;28;20512;-82
2021/05/15 03:27:50;;;;;;;11.87;5.07;;;10.30;99.90;;;;;;5045927;28;20488;-82
2021/05/15 03:30:18;;;;;;;13.77;4.97;;;10.30;99.90;;;;;;5046048;28;20551;-82
2021/05/15 03:32:45;;;;;;;12.77;5.80;;;10.40;99.90;;;;;;5047518;28;20481;-82
2021/05/15 03:35:12;;;;;;;11.37;5.40;;;10.40;99.90;;;;;;5063772;28;20487;-81
2021/05/15 03:37:39;;;;;;;13.90;5.73;;;10.40;99.90;;;;;;5059779;28;20466;-82
2021/05/15 03:40:08;;;;;;;11.67;5.30;;;10.40;99.90;;;;;;5057680;28;20552;-82
2021/05/15 03:42:35;;;;;;;16.20;5.33;;;10.50;99.90;;;;;;5059643;28;20477;-81
2021/05/15 03:45:01;;;;;;;11.80;5.10;;;10.50;99.90;;;;;;5063375;28;20533;-82
2021/05/15 03:47:27;;;;;;;13.30;4.50;;;10.50;99.90;;;;;;5055041;28;20905;-82
2021/05/15 03:49:53;;;;;;;13.00;4.70;;;10.60;99.90;;;;;;5065688;28;20475;-82
2021/05/15 03:52:20;;;;;;;10.37;4.23;;;10.70;99.90;;;;;;5063473;28;20539;-82
2021/05/15 03:54:46;;;;;;;12.03;4.90;;;10.80;99.90;;;;;;5064669;28;20490;-82
2021/05/15 03:57:13;;;;;;;10.23;4.10;;;10.80;99.90;;;;;;5063714;28;20484;-81
2021/05/15 03:59:40;;;;;;;12.17;4.67;;;10.80;99.90;;;;;;5064017;28;20562;-82
2021/05/15 04:02:06;;;;;;;11.70;4.50;;;10.90;99.90;;;;;;5063672;28;20953;-82
2021/05/15 04:04:34;;;;;;;10.40;3.80;;;11.00;99.90;;;;;;5064535;28;20456;-82
2021/05/15 04:07:00;;;;;;;12.77;4.18;;;11.10;99.90;;;;;;5063636;28;20516;-81
2021/05/15 04:09:26;;;;;;;10.10;3.77;;;11.10;99.90;;;;;;5066633;28;20636;-82
2021/05/15 04:11:52;;;;;;;11.20;3.93;;;11.10;99.90;;;;;;5066889;28;20475;-81
2021/05/15 04:14:28;;;;;;;10.17;3.33;;;11.20;99.90;;;;;;5066373;28;20512;-82
2021/05/15 04:17:14;;;;;;;10.70;4.13;;;11.30;99.90;;;;;;5058951;28;20452;-82
2021/05/15 04:19:40;;;;;;;11.20;4.07;;;11.40;99.90;;;;;;5056478;28;20460;-82
2021/05/15 04:22:06;;;;;;;11.50;3.73;;;11.40;99.90;;;;;;5059114;28;20424;-83
2021/05/15 04:24:33;;;;;;;10.07;4.00;;;11.40;99.90;;;;;;5059809;28;20452;-84
2021/05/15 04:27:02;;;;;;;11.07;3.30;;;11.50;99.90;;;;;;5058097;28;20951;-83
2021/05/15 04:29:30;;;;;;;9.90;3.37;;;11.50;99.90;;;;;;5059241;28;20452;-82
2021/05/15 04:31:57;;;;;;;10.60;3.70;;;11.50;99.90;;;;;;5059180;28;20464;-83
2021/05/15 04:34:25;;;;;;;10.33;3.00;;;11.60;99.90;;;;;;5059348;28;20488;-82
2021/05/15 04:36:52;;;;;;;10.20;3.43;;;11.60;99.90;;;;;;5059771;28;20543;-82
2021/05/15 04:39:18;;;;;;;9.63;2.90;;;11.60;99.90;;;;;;5058536;28;20523;-83
2021/05/15 04:41:44;;;;;;;10.63;2.80;;;11.70;99.90;;;;;;5058140;28;20533;-82
2021/05/15 04:44:11;;;;;;;9.23;3.30;;;11.70;99.90;;;;;;5057839;28;20818;-82
2021/05/15 04:46:38;;;;;;;12.40;3.33;;;11.70;99.90;;;;;;5058841;28;20452;-83
2021/05/15 04:49:05;;;;;;;10.57;3.33;;;11.80;99.90;;;;;;5059549;28;20511;-84
2021/05/15 04:51:31;;;;;;;11.53;3.70;;;11.80;99.90;;;;;;5062498;28;20478;-83
2021/05/15 04:54:01;;;;;;;10.73;3.10;;;11.80;99.90;;;;;;5059291;28;20745;-85
2021/05/15 04:56:28;;;;;;;10.60;3.27;;;11.90;99.90;;;;;;5059253;28;20456;-84
2021/05/15 04:58:54;;;;;;;10.80;2.43;;;11.80;99.90;;;;;;5058956;28;20486;-85
2021/05/15 05:01:20;;;;;;;14.73;4.00;;;11.70;99.90;;;;;;5059555;28;20482;-82
2021/05/15 05:03:47;;;;;;;10.30;3.40;;;11.60;99.90;;;;;;5066286;28;20516;-80
2021/05/15 05:06:14;;;;;;;11.90;3.80;;;11.30;99.90;;;;;;5066881;28;20484;-81
2021/05/15 05:08:40;;;;;;;12.80;4.10;;;11.20;99.90;;;;;;5067578;28;20492;-81
2021/05/15 05:11:06;;;;;;;9.47;3.37;;;11.10;99.90;;;;;;5063352;28;20507;-82
2021/05/15 05:13:33;;;;;;;10.07;3.80;;;11.00;99.90;;;;;;5062062;28;20479;-83
2021/05/15 05:15:59;;;;;;;11.10;4.00;;;10.90;99.90;;;;;;5063902;28;20509;-82
2021/05/15 05:18:25;;;;;;;12.10;3.83;;;11.00;99.90;;;;;;5063834;28;20931;-82
2021/05/15 05:20:53;;;;;;;9.43;3.47;;;11.00;99.90;;;;;;5059970;28;20544;-82
2021/05/15 05:23:19;;;;;;;9.70;3.60;;;11.10;99.90;;;;;;5059276;28;20453;-82
2021/05/15 05:25:45;;;;;;;11.13;3.83;;;11.10;99.90;;;;;;5058132;28;20786;-82
2021/05/15 05:28:14;;;;;;;11.80;3.60;;;11.10;99.90;;;;;;5058443;28;20522;-82
2021/05/15 05:30:40;;;;;;;9.67;3.77;;;11.20;99.90;;;;;;5060715;28;20475;-81
2021/05/15 05:33:06;;;;;;;9.63;3.40;;;11.20;99.90;;;;;;5055781;28;20463;-81
2021/05/15 05:35:35;;;;;;;9.40;3.70;;;11.20;99.90;;;;;;5054419;28;20487;-81
2021/05/15 05:38:02;;;;;;;9.40;4.03;;;11.20;99.90;;;;;;5057630;28;20460;-81
2021/05/15 05:40:28;;;;;;;11.97;4.33;;;11.20;99.90;;;;;;5057843;28;20476;-81
2021/05/15 05:42:54;;;;;;;9.43;3.60;;;11.30;99.90;;;;;;5056906;28;20531;-81
2021/05/15 05:45:21;;;;;;;10.07;3.60;;;11.30;99.90;;;;;;5056584;28;20535;-82
2021/05/15 05:47:47;;;;;;;9.97;3.80;;;11.40;99.90;;;;;;5056034;28;20523;-81
2021/05/15 05:50:14;;;;;;;9.00;3.70;;;11.50;99.90;;;;;;5051105;28;20551;-82
2021/05/15 05:52:40;;;;;;;15.97;5.13;;;11.50;99.90;;;;;;5049994;28;20452;-81
2021/05/15 05:55:08;;;;;;;11.10;4.63;;;11.60;99.90;;;;;;5055638;28;20484;-81
2021/05/15 05:57:35;;;;;;;9.50;3.70;;;11.80;99.90;;;;;;5049950;28;20449;-84
2021/05/15 06:00:01;;;;;;;12.80;4.87;;;12.00;99.90;;;;;;5042268;28;20556;-84
2021/05/15 06:02:28;;;;;;;9.00;3.80;;;12.30;99.90;;;;;;5049341;28;20499;-84
2021/05/15 06:04:54;;;;;;;46.03;23.50;;;12.40;99.90;;;;;;5055836;28;20444;-85
2021/05/15 06:07:20;;;;;;;14.83;7.00;;;12.50;99.90;;;;;;5057027;28;20833;-85
2021/05/15 06:09:46;;;;;;;10.80;5.07;;;12.70;99.90;;;;;;5054866;28;20452;-86
2021/05/15 06:12:14;;;;;;;13.30;5.33;;;12.90;99.90;;;;;;5049248;28;20456;-85
2021/05/15 06:14:41;;;;;;;10.97;5.07;;;13.20;99.90;;;;;;5051443;28;20515;-86
2021/05/15 06:17:07;;;;;;;12.23;4.80;;;13.30;99.90;;;;;;5051827;28;20448;-86
2021/05/15 06:19:34;;;;;;;12.40;4.23;;;13.30;99.90;;;;;;5050855;28;20490;-85
2021/05/15 06:22:00;;;;;;;12.63;4.50;;;13.40;99.90;;;;;;5047451;28;20460;-84
2021/05/15 06:24:27;;;;;;;9.53;4.33;;;13.30;99.90;;;;;;5052515;28;20455;-85
2021/05/15 06:26:53;;;;;;;10.90;4.80;;;13.60;99.90;;;;;;5040260;28;20490;-85
2021/05/15 06:29:20;;;;;;;9.20;3.83;;;13.70;99.90;;;;;;5037037;28;20815;-83
2021/05/15 06:31:46;;;;;;;11.53;4.57;;;13.70;99.90;;;;;;5052783;28;20472;-83
2021/05/15 06:34:13;;;;;;;11.57;5.10;;;13.70;99.90;;;;;;5054543;28;20908;-82
2021/05/15 06:36:39;;;;;;;13.50;6.53;;;13.30;99.90;;;;;;5056090;28;20452;-82
2021/05/15 06:39:06;;;;;;;13.77;6.80;;;13.40;99.90;;;;;;5057880;28;20493;-83
2021/05/15 06:41:32;;;;;;;15.40;7.87;;;13.30;99.90;;;;;;5054442;28;20547;-84
2021/05/15 06:43:58;;;;;;;16.87;7.50;;;13.30;99.90;;;;;;5052553;28;20543;-84
2021/05/15 06:46:26;;;;;;;17.40;7.30;;;13.40;99.90;;;;;;5047409;28;20461;-83
2021/05/15 06:48:52;;;;;;;21.33;9.57;;;13.30;99.90;;;;;;5049366;28;20460;-84
2021/05/15 06:51:18;;;;;;;19.87;10.03;;;13.30;99.90;;;;;;5048232;28;20484;-85
2021/05/15 06:53:44;;;;;;;18.67;10.50;;;13.30;99.90;;;;;;5049171;28;20490;-84
2021/05/15 06:56:11;;;;;;;19.43;9.73;;;13.50;99.90;;;;;;5044619;28;20531;-84
2021/05/15 06:58:40;;;;;;;21.17;11.33;;;13.40;99.90;;;;;;5052596;28;20490;-85
2021/05/15 07:01:07;;;;;;;23.20;12.33;;;13.70;99.90;;;;;;5051688;28;20476;-85
2021/05/15 07:03:35;;;;;;;21.80;11.83;;;13.80;99.90;;;;;;5036844;28;20874;-84
2021/05/15 07:06:02;;;;;;;18.30;10.87;;;13.80;99.90;;;;;;5036065;28;20941;-85
2021/05/15 07:08:28;;;;;;;20.03;11.50;;;14.00;99.90;;;;;;5045872;28;20999;-85
2021/05/15 07:10:54;;;;;;;21.63;11.40;;;13.70;99.90;;;;;;5051796;28;20488;-84
2021/05/15 07:13:21;;;;;;;24.47;11.50;;;13.80;99.90;;;;;;5053600;28;20542;-85
2021/05/15 07:15:47;;;;;;;19.73;10.77;;;13.80;99.90;;;;;;5044452;28;20477;-85
2021/05/15 07:18:13;;;;;;;22.43;10.90;;;13.50;99.90;;;;;;5037479;28;20460;-85
2021/05/15 07:20:41;;;;;;;18.70;9.43;;;13.30;99.90;;;;;;5044354;28;20472;-83
2021/05/15 07:23:07;;;;;;;24.40;11.80;;;13.30;99.90;;;;;;5052689;28;20448;-84
2021/05/15 07:25:34;;;;;;;22.27;11.37;;;13.50;99.90;;;;;;5048142;28;20456;-84
2021/05/15 07:28:01;;;;;;;19.10;9.83;;;13.50;99.90;;;;;;5042486;28;20461;-84
2021/05/15 07:30:27;;;;;;;18.90;9.63;;;13.60;99.90;;;;;;5039285;28;21121;-83
2021/05/15 07:32:57;;;;;;;18.53;10.60;;;13.40;99.90;;;;;;5055081;28;20459;-83
2021/05/15 07:35:23;;;;;;;23.23;11.47;;;13.20;99.90;;;;;;5058357;28;20495;-81
2021/05/15 07:37:51;;;;;;;25.77;11.50;;;13.10;99.90;;;;;;5057351;28;20538;-83
2021/05/15 07:40:17;;;;;;;25.37;13.43;;;13.00;99.90;;;;;;5058888;28;20467;-82
2021/05/15 07:42:44;;;;;;;23.27;13.27;;;12.90;99.90;;;;;;5056153;28;20447;-84
2021/05/15 07:45:12;;;;;;;21.43;11.57;;;12.70;99.90;;;;;;5058911;28;20447;-83
2021/05/15 07:47:38;;;;;;;19.73;9.77;;;12.80;99.90;;;;;;5057059;28;20497;-82
2021/05/15 07:50:05;;;;;;;23.13;12.70;;;12.70;99.90;;;;;;5057859;28;20539;-83
2021/05/15 07:52:34;;;;;;;20.33;9.40;;;12.60;99.90;;;;;;5055257;28;20825;-83
2021/05/15 07:55:02;;;;;;;20.90;8.97;;;12.50;99.90;;;;;;5057883;28;20479;-85
2021/05/15 07:57:28;;;;;;;17.53;9.67;;;12.40;99.90;;;;;;5058909;28;20436;-82
2021/05/15 07:59:56;;;;;;;18.87;9.90;;;12.40;99.90;;;;;;5055815;28;20460;-84
2021/05/15 08:02:27;;;;;;;20.37;10.50;;;12.50;99.90;;;;;;5058195;28;20951;-82
2021/05/15 08:04:54;;;;;;;20.67;11.40;;;12.70;99.90;;;;;;5060057;28;20436;-82
2021/05/15 08:07:20;;;;;;;15.77;8.70;;;12.90;99.90;;;;;;5054582;28;20496;-82
2021/05/15 08:10:24;;;;;;;14.23;8.77;;;13.00;99.90;;;;;;5048862;28;20449;-81
2021/05/15 08:12:51;;;;;;;17.97;9.77;;;13.00;99.90;;;;;;5032227;28;20467;-83
2021/05/15 08:15:17;;;;;;;15.50;9.40;;;13.00;99.90;;;;;;5057148;28;20479;-83
2021/05/15 08:17:43;;;;;;;18.70;9.80;;;12.80;99.90;;;;;;5057518;28;20531;-82
2021/05/15 08:20:14;;;;;;;18.60;11.10;;;12.90;99.90;;;;;;5058045;28;20464;-84
2021/05/15 08:22:40;;;;;;;18.10;10.47;;;13.10;99.90;;;;;;5052008;28;20575;-82
2021/05/15 08:25:11;;;;;;;19.60;10.30;;;13.30;99.90;;;;;;5052579;28;20470;-84
2021/05/15 08:27:39;;;;;;;16.07;9.20;;;13.40;99.90;;;;;;5055603;28;21024;-82
2021/05/15 08:30:09;;;;;;;20.53;10.30;;;13.70;99.90;;;;;;5057002;28;20563;-82
2021/05/15 08:32:36;;;;;;;14.60;8.17;;;13.80;99.90;;;;;;5058063;28;20555;-83
2021/05/15 08:35:03;;;;;;;14.87;8.70;;;14.00;99.90;;;;;;5059582;28;20490;-83
2021/05/15 08:37:31;;;;;;;15.80;9.33;;;14.00;99.90;;;;;;5057390;28;20456;-82
2021/05/15 08:39:57;;;;;;;20.03;11.20;;;14.10;99.90;;;;;;5061625;28;20480;-82
2021/05/15 08:42:27;;;;;;;14.43;7.83;;;14.10;99.90;;;;;;5073461;22;20558;-86
2021/05/15 08:44:59;;;;;;;14.30;7.70;;;14.40;99.90;;;;;;5028265;28;20475;-86
2021/05/15 08:47:25;;;;;;;18.97;7.80;;;14.60;99.90;;;;;;5038115;28;20449;-84
2021/05/15 08:49:55;;;;;;;18.17;9.70;;;14.90;99.90;;;;;;5037952;28;20445;-84
2021/05/15 08:52:24;;;;;;;19.57;9.43;;;15.10;99.90;;;;;;5036552;28;20473;-84
2021/05/15 08:54:51;;;;;;;22.17;8.90;;;15.40;99.90;;;;;;5037105;28;20579;-84
2021/05/15 08:57:18;;;;;;;20.40;8.00;;;15.90;99.90;;;;;;5032319;28;20535;-84
2021/05/15 08:59:46;;;;;;;28.03;16.50;;;16.30;99.90;;;;;;5036302;28;20460;-84
2021/05/15 09:02:15;;;;;;;27.07;13.70;;;17.20;99.90;;;;;;5033308;28;20469;-84
2021/05/15 09:04:41;;;;;;;25.50;16.03;;;17.50;99.90;;;;;;5034597;28;20450;-84
2021/05/15 09:07:10;;;;;;;26.83;16.47;;;17.40;99.90;;;;;;5037246;28;20454;-84
2021/05/15 09:09:38;;;;;;;19.27;6.67;;;17.30;99.90;;;;;;5041744;28;20555;-84
2021/05/15 09:12:10;;;;;;;20.00;8.00;;;17.10;99.90;;;;;;5045975;28;20548;-85
2021/05/15 09:14:38;;;;;;;21.53;9.83;;;17.20;99.90;;;;;;5044400;28;21093;-85
2021/05/15 09:17:05;;;;;;;24.40;10.30;;;17.00;99.90;;;;;;5037735;28;21029;-84
2021/05/15 09:19:33;;;;;;;39.87;36.17;;;16.70;99.90;;;;;;5037545;28;20453;-83
2021/05/15 09:22:01;;;;;;;19.33;7.07;;;16.60;99.90;;;;;;5037625;28;20468;-84
2021/05/15 09:24:31;;;;;;;23.30;10.63;;;16.20;99.90;;;;;;5042978;28;20476;-85
2021/05/15 09:27:02;;;;;;;17.30;5.30;;;15.80;99.90;;;;;;5044463;28;20440;-86
2021/05/15 09:29:42;;;;;;;34.17;30.50;;;15.90;99.90;;;;;;5045424;28;20453;-85
2021/05/15 09:32:08;;;;;;;32.43;26.40;;;17.40;99.90;;;;;;5043807;28;20475;-84
2021/05/15 09:34:45;;;;;;;54.83;47.77;;;18.20;99.90;;;;;;5043560;28;20512;-84
2021/05/15 09:37:11;;;;;;;47.37;41.67;;;18.00;99.90;;;;;;5040136;28;20475;-84
2021/05/15 09:39:37;;;;;;;35.47;20.13;;;17.60;99.90;;;;;;5037733;28;20453;-84
2021/05/15 09:42:04;;;;;;;28.30;8.30;;;17.30;99.90;;;;;;5030178;28;20508;-84
2021/05/15 09:44:33;;;;;;;18.40;7.87;;;16.80;99.90;;;;;;5036476;28;20441;-85
2021/05/15 09:47:00;;;;;;;23.80;7.07;;;16.80;99.90;;;;;;5036843;28;20465;-85
2021/05/15 09:49:28;;;;;;;292.43;272.77;;;17.50;99.90;;;;;;5037122;28;20833;-85
2021/05/15 09:51:58;;;;;;;75.50;64.90;;;18.60;99.90;;;;;;5035810;28;20568;-84
2021/05/15 09:54:26;;;;;;;134.60;125.00;;;18.70;99.90;;;;;;5034948;28;20493;-84
2021/05/15 09:57:00;;;;;;;47.07;42.97;;;18.10;99.90;;;;;;5034683;28;20460;-84
2021/05/15 09:59:30;;;;;;;117.10;54.00;;;18.60;99.90;;;;;;5037134;28;20453;-85
2021/05/15 10:01:57;;;;;;;8.20;3.40;;;21.40;99.90;;;;;;5036785;28;20491;-86
2021/05/15 10:04:25;;;;;;;5.53;2.87;;;23.50;99.90;;;;;;5037069;28;20449;-85
2021/05/15 10:06:52;;;;;;;6.80;3.90;;;23.40;99.90;;;;;;5036288;28;20453;-86
2021/05/15 10:09:30;;;;;;;1489.03;789.67;;;21.30;99.90;;;;;;5035392;28;20467;-86
2021/05/15 10:11:56;;;;;;;1999.90;999.90;;;19.20;99.90;;;;;;5024788;28;20526;-86
2021/05/15 10:14:23;;;;;;;1999.90;999.90;;;18.10;99.90;;;;;;5035468;28;20492;-85
2021/05/15 10:16:50;;;;;;;1022.53;948.10;;;17.40;99.90;;;;;;5036314;28;20543;-86
2021/05/15 10:19:16;;;;;;;873.43;817.07;;;16.80;99.90;;;;;;5039663;28;20455;-85
2021/05/15 10:21:43;;;;;;;695.10;650.53;;;16.30;99.90;;;;;;5035498;28;20480;-85
2021/05/15 10:24:23;;;;;;;516.73;488.23;;;15.80;99.90;;;;;;5036902;28;20453;-85
2021/05/15 10:26:59;;;;;;;179.43;167.37;;;15.80;99.90;;;;;;5030806;28;20919;-85
2021/05/15 10:29:35;;;;;;;58.93;52.23;;;16.00;99.90;;;;;;5035773;28;20453;-85
2021/05/15 10:32:02;;;;;;;66.43;57.40;;;17.30;99.90;;;;;;5036974;28;20555;-85
2021/05/15 10:34:31;;;;;;;343.43;320.67;;;18.70;99.90;;;;;;5034811;28;20567;-86
2021/05/15 10:37:01;;;;;;;484.63;443.03;;;19.90;99.90;;;;;;5036952;28;20459;-85
2021/05/15 10:39:28;;;;;;;366.80;342.80;;;21.20;99.90;;;;;;5034449;28;20456;-85
2021/05/15 10:41:56;;;;;;;6.00;2.60;;;22.80;99.90;;;;;;5010510;28;689864;-85
2021/05/15 10:44:28;;;;;;;5.40;2.60;;;24.10;99.90;;;;;;5033502;28;20206;-85
2021/05/15 10:47:00;;;;;;;6.37;3.13;;;25.80;99.90;;;;;;5036841;28;20514;-85
2021/05/15 10:49:36;;;;;;;5.07;2.40;;;28.30;99.90;;;;;;5035905;28;20448;-85
2021/05/15 10:52:10;;;;;;;6.10;2.90;;;29.30;99.50;;;;;;5033801;28;20472;-85
2021/05/15 10:54:41;;;;;;;6.83;3.30;;;30.30;95.30;;;;;;5035560;28;20494;-85
2021/05/15 10:57:10;;;;;;;5.60;2.80;;;30.50;86.00;;;;;;5021847;28;20545;-85
2021/05/15 10:59:37;;;;;;;6.53;3.33;;;30.30;91.10;;;;;;5033644;28;20452;-85
2021/05/15 11:02:07;;;;;;;6.50;4.17;;;30.30;84.80;;;;;;5030688;28;20471;-85
2021/05/15 11:04:35;;;;;;;6.20;3.20;;;29.60;82.50;;;;;;5034187;28;20437;-84
2021/05/15 11:07:04;;;;;;;6.10;3.37;;;28.90;81.40;;;;;;5031980;28;20451;-87
2021/05/15 11:09:32;;;;;;;7.03;2.60;;;29.60;84.60;;;;;;5033925;28;20595;-86
2021/05/15 11:12:13;;;;;;;5.70;2.80;;;29.30;78.80;;;;;;5031851;28;20552;-85
2021/05/15 11:14:45;;;;;;;6.30;2.50;;;27.80;77.80;;;;;;5029810;28;20492;-85
2021/05/15 11:17:24;;;;;;;10.10;3.97;;;26.50;80.10;;;;;;5036884;28;20451;-86
2021/05/15 11:19:57;;;;;;;5.43;2.70;;;24.90;77.70;;;;;;5035917;28;20448;-85
2021/05/15 11:22:36;;;;;;;7.60;3.70;;;23.80;87.20;;;;;;5036772;28;20544;-85
2021/05/15 11:25:17;;;;;;;6.10;2.77;;;23.10;83.40;;;;;;5040638;28;20456;-85
2021/05/15 11:27:46;;;;;;;7.53;3.17;;;22.70;86.40;;;;;;5035335;28;20452;-86
2021/05/15 11:30:17;;;;;;;6.23;3.13;;;22.10;91.90;;;;;;5038876;28;20956;-85
2021/05/15 11:32:55;;;;;;;6.83;2.23;;;21.40;94.30;;;;;;5037922;28;20466;-86
2021/05/15 11:35:21;;;;;;;4.67;1.37;;;19.70;93.40;;;;;;5036442;28;20494;-86
2021/05/15 11:37:48;;;;;;;5.10;1.10;;;18.40;95.60;;;;;;5037989;28;20449;-84
2021/05/15 11:40:15;;;;;;;4.60;1.00;;;17.20;99.90;;;;;;5039266;28;20472;-85
2021/05/15 11:42:41;;;;;;;1999.90;999.90;;;15.90;99.90;;;;;;5039448;28;20480;-84
2021/05/15 11:45:14;;;;;;;1999.90;999.90;;;14.40;99.90;;;;;;5038588;28;20480;-84
2021/05/15 11:47:43;;;;;;;1999.90;999.90;;;14.10;99.90;;;;;;5035481;28;20440;-84
2021/05/15 11:50:15;;;;;;;1037.40;958.63;;;13.50;99.90;;;;;;5037061;28;20517;-84
2021/05/15 11:52:41;;;;;;;734.03;684.80;;;13.10;99.90;;;;;;5035286;28;20486;-86
2021/05/15 11:55:08;;;;;;;136.13;126.00;;;12.60;99.90;;;;;;5035888;28;20484;-85
2021/05/15 11:57:35;;;;;;;131.67;121.60;;;12.50;99.90;;;;;;5036715;28;20457;-84
2021/05/15 12:00:17;;;;;;;199.20;186.13;;;12.30;99.90;;;;;;5035845;28;20511;-84
2021/05/15 12:02:47;;;;;;;201.30;188.47;;;12.20;99.90;;;;;;5038268;28;20528;-85
2021/05/15 12:05:18;;;;;;;103.17;94.17;;;12.20;99.90;;;;;;5037500;28;20814;-85
2021/05/15 12:07:45;;;;;;;165.10;153.80;;;12.20;99.90;;;;;;5037125;28;21032;-86
2021/05/15 12:10:15;;;;;;;149.70;139.40;;;12.20;99.90;;;;;;5038174;28;20449;-85
2021/05/15 12:12:52;;;;;;;96.07;88.70;;;12.50;99.90;;;;;;5035650;28;20531;-86
2021/05/15 12:15:20;;;;;;;39.83;27.33;;;12.70;99.90;;;;;;5033155;28;20481;-85
2021/05/15 12:17:46;;;;;;;48.37;41.93;;;13.00;99.90;;;;;;5037433;28;20889;-85
2021/05/15 12:20:24;;;;;;;27.43;7.93;;;13.20;99.90;;;;;;5036143;28;20461;-85
2021/05/15 12:23:05;;;;;;;30.77;13.20;;;13.60;99.90;;;;;;5030242;28;20507;-84
2021/05/15 12:25:32;;;;;;;82.17;75.87;;;13.90;99.90;;;;;;5035321;28;20465;-87
2021/05/15 12:27:58;;;;;;;92.90;86.50;;;14.30;99.90;;;;;;5036311;28;20971;-86
2021/05/15 12:30:26;;;;;;;107.30;99.97;;;14.90;99.90;;;;;;5035747;28;20460;-86
2021/05/15 12:33:01;;;;;;;168.40;157.70;;;15.60;99.90;;;;;;5035048;28;20477;-85
2021/05/15 12:35:30;;;;;;;87.67;80.90;;;16.10;99.90;;;;;;5037734;28;20906;-84
2021/05/15 12:38:08;;;;;;;444.20;421.33;;;17.10;99.90;;;;;;5035463;28;20453;-85
2021/05/15 12:40:37;;;;;;;530.43;499.97;;;17.90;99.90;;;;;;5036325;28;20445;-86